AFL2122 UUEE-LTBS
Flight info
| Callsign | AFL2122 |
|---|---|
| Flight time | N/A |
| Altitude | 34000 |
| Route | TOKNU3F TOKNU T288 STAPA M869 OPOKA/N0457F340 DCT LAUGA DCT VABER DCT GERVI M857 PODAN DCT KEKED/N0463F350 DCT NARKA DCT DVA DCT OSTOV DCT RODIP UN131 DUGLA UT350 NEXAM |
| Aircraft | B738/M-SDE2E3FGHIRWXY/LB1 |
Departure
| Time | 2026-05-01 10:47 |
|---|---|
| Airport | Sheremetyevo International Airport (UUEE) |
Arrival
| Time | N/A |
|---|---|
| Airport | Dalaman International Airport (LTBS) |
| Time | Latitude | Longitude | Altitude | Speed | Heading |
|---|---|---|---|---|---|
| 2026-05-01 10:46 | 56.00724 | 37.70904 | 7186 ft | 262 kts | 19° |
| 2026-05-01 10:47 | 56.02463 | 37.71960 | 7882 ft | 265 kts | 17° |
| 2026-05-01 10:47 | 56.04220 | 37.72995 | 8675 ft | 266 kts | 17° |
| 2026-05-01 10:47 | 56.06032 | 37.73599 | 9416 ft | 268 kts | 355° |
| 2026-05-01 10:47 | 56.07816 | 37.72660 | 10157 ft | 271 kts | 331° |
| 2026-05-01 10:48 | 56.09290 | 37.70461 | 10587 ft | 288 kts | 311° |
| 2026-05-01 10:48 | 56.10515 | 37.67511 | 10792 ft | 308 kts | 308° |
| 2026-05-01 10:48 | 56.11685 | 37.64210 | 11304 ft | 319 kts | 295° |
| 2026-05-01 10:48 | 56.12103 | 37.60256 | 11911 ft | 331 kts | 270° |
| 2026-05-01 10:49 | 56.11647 | 37.56174 | 12556 ft | 339 kts | 254° |
| 2026-05-01 10:49 | 56.10870 | 37.52137 | 13177 ft | 346 kts | 253° |
| 2026-05-01 10:49 | 56.10052 | 37.48038 | 13774 ft | 352 kts | 253° |
| 2026-05-01 10:49 | 56.09230 | 37.43856 | 14334 ft | 357 kts | 254° |
| 2026-05-01 10:50 | 56.08415 | 37.39616 | 14866 ft | 363 kts | 254° |
| 2026-05-01 10:50 | 56.07595 | 37.35314 | 15452 ft | 367 kts | 255° |
| 2026-05-01 10:50 | 56.06773 | 37.31037 | 16020 ft | 371 kts | 253° |
| 2026-05-01 10:50 | 56.05859 | 37.26672 | 16566 ft | 377 kts | 252° |
| 2026-05-01 10:51 | 56.04906 | 37.22255 | 16738 ft | 382 kts | 252° |
| 2026-05-01 10:51 | 56.03951 | 37.17815 | 16694 ft | 382 kts | 252° |
| 2026-05-01 10:51 | 56.03004 | 37.13393 | 16688 ft | 379 kts | 252° |
| 2026-05-01 10:51 | 56.02141 | 37.08979 | 16684 ft | 375 kts | 258° |
| 2026-05-01 10:52 | 56.01527 | 37.04450 | 16695 ft | 375 kts | 262° |
| 2026-05-01 10:52 | 56.00987 | 36.99918 | 16690 ft | 377 kts | 262° |
| 2026-05-01 10:52 | 56.00430 | 36.95440 | 16695 ft | 378 kts | 261° |
| 2026-05-01 10:52 | 55.99825 | 36.90859 | 16698 ft | 379 kts | 261° |
| 2026-05-01 10:53 | 55.99246 | 36.86280 | 16684 ft | 376 kts | 267° |
| 2026-05-01 10:53 | 55.99373 | 36.81740 | 16704 ft | 360 kts | 291° |
| 2026-05-01 10:53 | 56.00332 | 36.77703 | 16699 ft | 349 kts | 308° |
| 2026-05-01 10:53 | 56.01275 | 36.75410 | 16690 ft | 341 kts | 319° |
| 2026-05-01 10:54 | 56.03612 | 36.71659 | 16693 ft | 336 kts | 326° |
| 2026-05-01 10:54 | 56.05414 | 36.69001 | 16698 ft | 336 kts | 326° |
| 2026-05-01 10:54 | 56.07189 | 36.66348 | 16689 ft | 336 kts | 325° |
| 2026-05-01 10:54 | 56.08975 | 36.63635 | 16685 ft | 336 kts | 325° |
| 2026-05-01 10:55 | 56.10775 | 36.60974 | 16681 ft | 333 kts | 332° |
| 2026-05-01 10:55 | 56.12122 | 36.59749 | 16687 ft | 324 kts | 347° |
| 2026-05-01 10:55 | 56.14308 | 36.59074 | 16687 ft | 317 kts | 2° |
| 2026-05-01 10:55 | 56.16478 | 36.59557 | 16699 ft | 312 kts | 15° |
| 2026-05-01 10:56 | 56.18583 | 36.60529 | 16688 ft | 313 kts | 15° |
| 2026-05-01 10:56 | 56.20756 | 36.60942 | 16682 ft | 317 kts | 356° |
| 2026-05-01 10:56 | 56.22904 | 36.59920 | 16697 ft | 325 kts | 341° |
| 2026-05-01 10:56 | 56.24830 | 36.57712 | 16701 ft | 334 kts | 324° |
| 2026-05-01 10:57 | 56.26548 | 36.54867 | 16692 ft | 337 kts | 322° |
| 2026-05-01 10:57 | 56.28213 | 36.51964 | 16702 ft | 338 kts | 321° |
| 2026-05-01 10:57 | 56.29910 | 36.49015 | 16693 ft | 339 kts | 322° |
| 2026-05-01 10:57 | 56.31618 | 36.46086 | 16691 ft | 339 kts | 322° |
| 2026-05-01 10:58 | 56.33333 | 36.43166 | 16687 ft | 339 kts | 322° |
| 2026-05-01 10:58 | 56.35027 | 36.40192 | 16683 ft | 342 kts | 316° |
| 2026-05-01 10:58 | 56.36224 | 36.36418 | 16712 ft | 354 kts | 295° |
| 2026-05-01 10:58 | 56.36766 | 36.32033 | 16708 ft | 361 kts | 283° |
| 2026-05-01 10:59 | 56.37077 | 36.27527 | 16698 ft | 363 kts | 282° |
| 2026-05-01 10:59 | 56.37348 | 36.23001 | 16693 ft | 363 kts | 281° |
| 2026-05-01 10:59 | 56.37614 | 36.18520 | 16698 ft | 363 kts | 282° |
| 2026-05-01 10:59 | 56.37893 | 36.13994 | 16697 ft | 363 kts | 282° |
| 2026-05-01 11:00 | 56.38181 | 36.09465 | 16700 ft | 363 kts | 282° |
| 2026-05-01 11:00 | 56.38477 | 36.04936 | 16701 ft | 363 kts | 282° |
| 2026-05-01 11:00 | 56.38776 | 36.00422 | 16704 ft | 364 kts | 282° |
| 2026-05-01 11:00 | 56.39075 | 35.95960 | 16797 ft | 378 kts | 282° |
| 2026-05-01 11:01 | 56.39398 | 35.91152 | 16934 ft | 394 kts | 282° |
| 2026-05-01 11:01 | 56.39732 | 35.86147 | 17059 ft | 409 kts | 282° |
| 2026-05-01 11:01 | 56.40072 | 35.80954 | 17192 ft | 423 kts | 282° |
| 2026-05-01 11:01 | 56.40416 | 35.75629 | 17519 ft | 430 kts | 281° |
| 2026-05-01 11:02 | 56.40760 | 35.70242 | 18005 ft | 433 kts | 282° |
| 2026-05-01 11:02 | 56.41105 | 35.64818 | 18529 ft | 436 kts | 282° |
| 2026-05-01 11:02 | 56.41452 | 35.59367 | 18939 ft | 438 kts | 281° |
| 2026-05-01 11:02 | 56.41800 | 35.53884 | 19443 ft | 439 kts | 282° |
| 2026-05-01 11:03 | 56.42148 | 35.48388 | 19857 ft | 442 kts | 282° |
| 2026-05-01 11:03 | 56.42493 | 35.42914 | 20238 ft | 445 kts | 282° |
| 2026-05-01 11:03 | 56.42843 | 35.37335 | 20632 ft | 449 kts | 282° |
| 2026-05-01 11:03 | 56.43193 | 35.31713 | 21045 ft | 451 kts | 282° |
| 2026-05-01 11:04 | 56.43541 | 35.26058 | 21439 ft | 454 kts | 282° |
| 2026-05-01 11:04 | 56.43888 | 35.20374 | 21807 ft | 457 kts | 282° |
| 2026-05-01 11:04 | 56.44236 | 35.14650 | 22173 ft | 460 kts | 282° |
| 2026-05-01 11:04 | 56.44584 | 35.08881 | 22544 ft | 462 kts | 282° |
| 2026-05-01 11:05 | 56.44930 | 35.03085 | 22898 ft | 465 kts | 282° |
| 2026-05-01 11:05 | 56.45427 | 34.97500 | 23220 ft | 461 kts | 290° |
| 2026-05-01 11:05 | 56.46399 | 34.92014 | 23487 ft | 455 kts | 301° |
| 2026-05-01 11:05 | 56.47738 | 34.86850 | 23826 ft | 454 kts | 303° |
| 2026-05-01 11:06 | 56.49118 | 34.81680 | 24129 ft | 456 kts | 303° |
| 2026-05-01 11:06 | 56.50473 | 34.76561 | 24437 ft | 457 kts | 303° |
| 2026-05-01 11:06 | 56.51833 | 34.71349 | 24717 ft | 459 kts | 303° |
| 2026-05-01 11:07 | 56.54546 | 34.60780 | 25267 ft | 463 kts | 303° |
| 2026-05-01 11:07 | 56.55896 | 34.55467 | 25534 ft | 465 kts | 303° |
| 2026-05-01 11:07 | 56.57248 | 34.50130 | 25801 ft | 466 kts | 303° |
| 2026-05-01 11:07 | 56.58604 | 34.44767 | 26009 ft | 468 kts | 304° |
| 2026-05-01 11:08 | 56.59961 | 34.39389 | 26261 ft | 470 kts | 304° |
| 2026-05-01 11:08 | 56.61316 | 34.34003 | 26621 ft | 468 kts | 304° |
| 2026-05-01 11:08 | 56.64002 | 34.23289 | 27474 ft | 463 kts | 304° |
| 2026-05-01 11:09 | 56.65317 | 34.17926 | 27839 ft | 466 kts | 301° |
| 2026-05-01 11:09 | 56.66300 | 34.12236 | 28151 ft | 479 kts | 292° |
| 2026-05-01 11:09 | 56.66783 | 34.06166 | 28508 ft | 489 kts | 284° |
| 2026-05-01 11:10 | 56.67318 | 33.94119 | 29232 ft | 488 kts | 284° |
| 2026-05-01 11:10 | 56.67577 | 33.87968 | 29489 ft | 488 kts | 284° |
| 2026-05-01 11:10 | 56.67844 | 33.81830 | 29897 ft | 485 kts | 284° |
| 2026-05-01 11:10 | 56.68119 | 33.75726 | 30313 ft | 482 kts | 284° |
| 2026-05-01 11:11 | 56.68401 | 33.69655 | 30588 ft | 482 kts | 284° |
| 2026-05-01 11:11 | 56.68689 | 33.63580 | 30817 ft | 482 kts | 284° |
| 2026-05-01 11:11 | 56.68978 | 33.57488 | 31060 ft | 482 kts | 284° |
| 2026-05-01 11:11 | 56.69263 | 33.51412 | 31341 ft | 481 kts | 284° |
| 2026-05-01 11:12 | 56.69544 | 33.45342 | 31624 ft | 480 kts | 284° |
| 2026-05-01 11:12 | 56.69821 | 33.39292 | 31875 ft | 480 kts | 284° |
| 2026-05-01 11:12 | 56.70096 | 33.33233 | 32101 ft | 480 kts | 284° |
| 2026-05-01 11:12 | 56.70367 | 33.27158 | 32367 ft | 480 kts | 284° |
| 2026-05-01 11:13 | 56.70634 | 33.21100 | 32607 ft | 478 kts | 283° |
| 2026-05-01 11:13 | 56.70891 | 33.15161 | 32979 ft | 475 kts | 283° |
| 2026-05-01 11:13 | 56.71148 | 33.09171 | 33271 ft | 474 kts | 283° |
| 2026-05-01 11:13 | 56.71404 | 33.03179 | 33444 ft | 475 kts | 283° |
| 2026-05-01 11:14 | 56.71651 | 32.97352 | 33614 ft | 476 kts | 283° |
| 2026-05-01 11:14 | 56.71902 | 32.91357 | 33847 ft | 475 kts | 283° |
| 2026-05-01 11:14 | 56.72149 | 32.85358 | 34108 ft | 474 kts | 283° |
| 2026-05-01 11:14 | 56.72393 | 32.79357 | 34324 ft | 474 kts | 283° |
| 2026-05-01 11:15 | 56.72634 | 32.73371 | 34509 ft | 474 kts | 283° |
| 2026-05-01 11:15 | 56.72872 | 32.67391 | 34664 ft | 474 kts | 283° |
| 2026-05-01 11:15 | 56.73108 | 32.61400 | 34836 ft | 474 kts | 282° |
| 2026-05-01 11:15 | 56.73340 | 32.55418 | 34984 ft | 473 kts | 282° |
| 2026-05-01 11:16 | 56.73566 | 32.49464 | 35238 ft | 470 kts | 282° |
| 2026-05-01 11:16 | 56.73793 | 32.43483 | 35200 ft | 474 kts | 282° |
| 2026-05-01 11:16 | 56.74238 | 32.31568 | 35226 ft | 474 kts | 282° |
| 2026-05-01 11:17 | 56.74668 | 32.19614 | 35224 ft | 471 kts | 282° |
| 2026-05-01 11:17 | 56.75085 | 32.07717 | 35224 ft | 469 kts | 282° |
| 2026-05-01 11:18 | 56.75486 | 31.96020 | 35226 ft | 468 kts | 282° |
| 2026-05-01 11:18 | 56.75880 | 31.84198 | 35224 ft | 466 kts | 282° |
| 2026-05-01 11:19 | 56.76263 | 31.72406 | 35221 ft | 466 kts | 282° |
| 2026-05-01 11:19 | 56.76634 | 31.60613 | 35223 ft | 467 kts | 281° |
| 2026-05-01 11:20 | 56.76996 | 31.48783 | 35216 ft | 468 kts | 281° |
| 2026-05-01 11:20 | 56.77345 | 31.36996 | 35217 ft | 469 kts | 281° |
| 2026-05-01 11:21 | 56.77688 | 31.25091 | 35176 ft | 470 kts | 281° |
| 2026-05-01 11:21 | 56.78018 | 31.13164 | 35206 ft | 471 kts | 281° |
| 2026-05-01 11:22 | 56.78377 | 31.01228 | 35215 ft | 471 kts | 282° |
| 2026-05-01 11:22 | 56.78742 | 30.89440 | 35213 ft | 472 kts | 282° |
| 2026-05-01 11:23 | 56.79097 | 30.77469 | 35218 ft | 473 kts | 281° |
| 2026-05-01 11:23 | 56.79358 | 30.65464 | 35211 ft | 476 kts | 278° |
| 2026-05-01 11:24 | 56.79286 | 30.53441 | 35195 ft | 476 kts | 277° |
| 2026-05-01 11:25 | 56.79152 | 30.35372 | 35215 ft | 473 kts | 278° |
| 2026-05-01 11:25 | 56.79052 | 30.17393 | 35218 ft | 472 kts | 278° |
| 2026-05-01 11:26 | 56.78940 | 29.99684 | 35210 ft | 471 kts | 278° |
| 2026-05-01 11:27 | 56.78854 | 29.87744 | 35218 ft | 470 kts | 278° |
| 2026-05-01 11:27 | 56.78757 | 29.75800 | 35221 ft | 471 kts | 277° |
| 2026-05-01 11:28 | 56.78648 | 29.63954 | 35224 ft | 471 kts | 277° |
| 2026-05-01 11:28 | 56.78528 | 29.51987 | 35226 ft | 471 kts | 277° |
| 2026-05-01 11:29 | 56.78326 | 29.33999 | 35221 ft | 473 kts | 277° |
| 2026-05-01 11:30 | 56.78101 | 29.16073 | 35224 ft | 473 kts | 277° |
| 2026-05-01 11:30 | 56.77926 | 29.04076 | 35228 ft | 473 kts | 276° |
| 2026-05-01 11:31 | 56.77687 | 28.92218 | 35228 ft | 476 kts | 276° |
| 2026-05-01 11:31 | 56.77424 | 28.80162 | 35218 ft | 476 kts | 276° |
| 2026-05-01 11:32 | 56.77157 | 28.68104 | 35220 ft | 475 kts | 276° |
| 2026-05-01 11:32 | 56.76885 | 28.56057 | 35174 ft | 475 kts | 275° |
| 2026-05-01 11:33 | 56.76604 | 28.44120 | 35218 ft | 473 kts | 275° |
| 2026-05-01 11:33 | 56.76312 | 28.32164 | 35226 ft | 472 kts | 275° |
| 2026-05-01 11:34 | 56.76009 | 28.20222 | 35232 ft | 471 kts | 275° |
| 2026-05-01 11:34 | 56.75697 | 28.08281 | 35233 ft | 471 kts | 275° |
| 2026-05-01 11:35 | 56.75297 | 27.96520 | 35231 ft | 476 kts | 268° |
| 2026-05-01 11:35 | 56.74490 | 27.90603 | 35239 ft | 487 kts | 256° |
| 2026-05-01 11:35 | 56.73097 | 27.84991 | 35194 ft | 496 kts | 245° |
| 2026-05-01 11:36 | 56.69041 | 27.74739 | 35240 ft | 501 kts | 237° |
| 2026-05-01 11:36 | 56.64772 | 27.64709 | 35242 ft | 501 kts | 237° |
| 2026-05-01 11:37 | 56.60542 | 27.54646 | 35238 ft | 500 kts | 237° |
| 2026-05-01 11:37 | 56.56340 | 27.44544 | 35241 ft | 500 kts | 237° |
| 2026-05-01 11:38 | 56.52147 | 27.34464 | 35238 ft | 500 kts | 237° |
| 2026-05-01 11:38 | 56.47971 | 27.24469 | 35250 ft | 501 kts | 237° |
| 2026-05-01 11:39 | 56.43752 | 27.14425 | 35248 ft | 501 kts | 237° |
| 2026-05-01 11:39 | 56.39519 | 27.04392 | 35250 ft | 502 kts | 237° |
| 2026-05-01 11:40 | 56.35341 | 26.94527 | 35255 ft | 502 kts | 237° |
| 2026-05-01 11:40 | 56.31083 | 26.84518 | 35253 ft | 503 kts | 237° |
| 2026-05-01 11:41 | 56.26841 | 26.74585 | 35257 ft | 503 kts | 237° |
| 2026-05-01 11:41 | 56.22561 | 26.64602 | 35217 ft | 504 kts | 236° |
| 2026-05-01 11:42 | 56.18280 | 26.54661 | 35240 ft | 503 kts | 236° |
| 2026-05-01 11:42 | 56.13984 | 26.44723 | 35249 ft | 502 kts | 236° |
| 2026-05-01 11:43 | 56.10423 | 26.36516 | 35257 ft | 502 kts | 236° |
| 2026-05-01 11:43 | 56.06125 | 26.26644 | 35254 ft | 501 kts | 236° |
| 2026-05-01 11:44 | 55.99683 | 26.11912 | 35258 ft | 501 kts | 236° |
| 2026-05-01 11:44 | 55.95335 | 26.02278 | 35256 ft | 503 kts | 230° |
| 2026-05-01 11:45 | 55.90317 | 25.94105 | 35262 ft | 506 kts | 223° |
| 2026-05-01 11:45 | 55.84966 | 25.85962 | 35264 ft | 506 kts | 223° |
| 2026-05-01 11:46 | 55.79624 | 25.77762 | 35260 ft | 508 kts | 224° |
| 2026-05-01 11:46 | 55.74310 | 25.69507 | 35257 ft | 508 kts | 224° |
| 2026-05-01 11:47 | 55.68999 | 25.61244 | 35265 ft | 507 kts | 224° |
| 2026-05-01 11:47 | 55.63684 | 25.53005 | 35269 ft | 507 kts | 224° |
| 2026-05-01 11:48 | 55.58398 | 25.44851 | 35262 ft | 507 kts | 224° |
| 2026-05-01 11:48 | 55.53085 | 25.36688 | 35269 ft | 507 kts | 223° |
| 2026-05-01 11:49 | 55.47758 | 25.28534 | 35264 ft | 507 kts | 223° |
| 2026-05-01 11:49 | 55.42416 | 25.20388 | 35270 ft | 507 kts | 223° |
| 2026-05-01 11:50 | 55.37078 | 25.12276 | 35258 ft | 506 kts | 223° |
| 2026-05-01 11:50 | 55.31741 | 25.04197 | 35276 ft | 506 kts | 223° |
| 2026-05-01 11:51 | 55.26468 | 24.96244 | 35266 ft | 507 kts | 223° |
| 2026-05-01 11:51 | 55.21142 | 24.88242 | 35270 ft | 506 kts | 223° |
| 2026-05-01 11:52 | 55.15790 | 24.80228 | 35286 ft | 506 kts | 223° |
| 2026-05-01 11:52 | 55.10439 | 24.72246 | 35263 ft | 506 kts | 223° |
| 2026-05-01 11:53 | 55.05078 | 24.64277 | 35286 ft | 505 kts | 223° |
| 2026-05-01 11:53 | 54.99731 | 24.56359 | 35281 ft | 505 kts | 222° |
| 2026-05-01 11:54 | 54.94377 | 24.48459 | 35291 ft | 505 kts | 222° |
| 2026-05-01 11:54 | 54.89040 | 24.40612 | 35297 ft | 505 kts | 222° |
| 2026-05-01 11:55 | 54.83663 | 24.32734 | 35291 ft | 505 kts | 222° |
| 2026-05-01 11:55 | 54.78282 | 24.24880 | 35299 ft | 506 kts | 222° |
| 2026-05-01 11:56 | 54.72887 | 24.17032 | 35295 ft | 506 kts | 222° |
| 2026-05-01 11:56 | 54.67490 | 24.09211 | 35296 ft | 507 kts | 222° |
| 2026-05-01 11:57 | 54.62115 | 24.01448 | 35299 ft | 507 kts | 222° |
| 2026-05-01 11:57 | 54.56782 | 23.93773 | 35299 ft | 507 kts | 221° |
| 2026-05-01 11:58 | 54.51351 | 23.85986 | 35304 ft | 508 kts | 221° |
| 2026-05-01 11:59 | 54.43194 | 23.74339 | 35302 ft | 509 kts | 221° |
| 2026-05-01 11:59 | 54.37737 | 23.66582 | 35309 ft | 509 kts | 221° |
| 2026-05-01 12:00 | 54.29563 | 23.55012 | 35306 ft | 510 kts | 221° |
| 2026-05-01 12:01 | 54.21333 | 23.43491 | 35310 ft | 510 kts | 217° |
| 2026-05-01 12:01 | 54.15106 | 23.37744 | 35345 ft | 510 kts | 199° |
| 2026-05-01 12:02 | 54.08399 | 23.33712 | 35315 ft | 510 kts | 198° |
| 2026-05-01 12:02 | 54.01701 | 23.29732 | 35305 ft | 510 kts | 199° |
| 2026-05-01 12:03 | 53.95074 | 23.25708 | 35304 ft | 510 kts | 199° |
| 2026-05-01 12:03 | 53.88399 | 23.21613 | 35307 ft | 509 kts | 199° |
| 2026-05-01 12:04 | 53.81730 | 23.17525 | 35308 ft | 509 kts | 199° |
| 2026-05-01 12:04 | 53.75102 | 23.13480 | 35309 ft | 509 kts | 199° |
| 2026-05-01 12:05 | 53.68433 | 23.09429 | 35307 ft | 509 kts | 199° |
| 2026-05-01 12:05 | 53.58430 | 23.03380 | 35307 ft | 509 kts | 199° |
| 2026-05-01 12:06 | 53.51853 | 22.99418 | 35310 ft | 509 kts | 199° |
| 2026-05-01 12:06 | 53.45172 | 22.95408 | 35311 ft | 510 kts | 199° |
| 2026-05-01 12:07 | 53.38488 | 22.91409 | 35305 ft | 510 kts | 199° |
| 2026-05-01 12:07 | 53.31794 | 22.87417 | 35312 ft | 510 kts | 199° |
| 2026-05-01 12:08 | 53.25092 | 22.83434 | 35309 ft | 511 kts | 199° |
| 2026-05-01 12:08 | 53.18392 | 22.79465 | 35313 ft | 511 kts | 198° |
| 2026-05-01 12:09 | 53.11687 | 22.75507 | 35304 ft | 511 kts | 198° |
| 2026-05-01 12:09 | 53.05026 | 22.71587 | 35306 ft | 511 kts | 198° |
| 2026-05-01 12:10 | 52.94980 | 22.65699 | 35309 ft | 511 kts | 198° |
| 2026-05-01 12:11 | 52.84911 | 22.59828 | 35310 ft | 511 kts | 198° |
| 2026-05-01 12:11 | 52.78195 | 22.55927 | 35326 ft | 513 kts | 198° |
| 2026-05-01 12:12 | 52.71430 | 22.52010 | 35288 ft | 515 kts | 198° |
| 2026-05-01 12:12 | 52.64702 | 22.48129 | 35294 ft | 514 kts | 198° |
| 2026-05-01 12:13 | 52.57958 | 22.44250 | 35293 ft | 512 kts | 198° |
| 2026-05-01 12:13 | 52.51234 | 22.40395 | 35300 ft | 510 kts | 198° |
| 2026-05-01 12:14 | 52.44538 | 22.36568 | 35301 ft | 509 kts | 198° |
| 2026-05-01 12:14 | 52.43457 | 22.35952 | 35303 ft | 509 kts | 198° |